sensor_id;sensor_type;location;lat;lon;timestamp;P1;durP1;ratioP1;P2;durP2;ratioP2
11141;SDS011;5625;50.122;19.864;2023-02-28T00:01:26;15.47;;;10.73;;
11141;SDS011;5625;50.122;19.864;2023-02-28T00:03:57;14.27;;;9.97;;
11141;SDS011;5625;50.122;19.864;2023-02-28T00:06:25;13.37;;;9.80;;
11141;SDS011;5625;50.122;19.864;2023-02-28T00:08:53;15.43;;;10.27;;
11141;SDS011;5625;50.122;19.864;2023-02-28T00:11:22;13.77;;;9.97;;
11141;SDS011;5625;50.122;19.864;2023-02-28T00:13:53;15.30;;;10.03;;
11141;SDS011;5625;50.122;19.864;2023-02-28T00:16:21;13.33;;;9.60;;
11141;SDS011;5625;50.122;19.864;2023-02-28T00:18:50;13.27;;;9.77;;
11141;SDS011;5625;50.122;19.864;2023-02-28T00:21:20;15.73;;;10.07;;
11141;SDS011;5625;50.122;19.864;2023-02-28T00:23:48;15.53;;;9.47;;
11141;SDS011;5625;50.122;19.864;2023-02-28T00:26:16;15.17;;;10.07;;
11141;SDS011;5625;50.122;19.864;2023-02-28T00:28:47;16.00;;;10.30;;
11141;SDS011;5625;50.122;19.864;2023-02-28T00:31:15;16.57;;;10.23;;
11141;SDS011;5625;50.122;19.864;2023-02-28T00:33:43;16.90;;;11.10;;
11141;SDS011;5625;50.122;19.864;2023-02-28T00:36:11;14.23;;;10.07;;
11141;SDS011;5625;50.122;19.864;2023-02-28T00:38:41;15.93;;;9.73;;
11141;SDS011;5625;50.122;19.864;2023-02-28T00:41:09;14.70;;;10.60;;
11141;SDS011;5625;50.122;19.864;2023-02-28T00:43:37;14.13;;;10.10;;
11141;SDS011;5625;50.122;19.864;2023-02-28T00:46:06;14.23;;;10.87;;
11141;SDS011;5625;50.122;19.864;2023-02-28T00:48:35;15.57;;;10.40;;
11141;SDS011;5625;50.122;19.864;2023-02-28T00:51:04;15.40;;;9.90;;
11141;SDS011;5625;50.122;19.864;2023-02-28T00:53:32;15.63;;;10.57;;
11141;SDS011;5625;50.122;19.864;2023-02-28T00:56:02;17.07;;;11.60;;
11141;SDS011;5625;50.122;19.864;2023-02-28T00:58:30;14.43;;;10.57;;
11141;SDS011;5625;50.122;19.864;2023-02-28T01:00:58;18.23;;;10.70;;
11141;SDS011;5625;50.122;19.864;2023-02-28T01:03:27;17.57;;;10.77;;
11141;SDS011;5625;50.122;19.864;2023-02-28T01:05:55;14.43;;;10.87;;
11141;SDS011;5625;50.122;19.864;2023-02-28T01:08:26;17.43;;;12.27;;
11141;SDS011;5625;50.122;19.864;2023-02-28T01:10:54;15.67;;;11.27;;
11141;SDS011;5625;50.122;19.864;2023-02-28T01:13:25;16.47;;;11.17;;
11141;SDS011;5625;50.122;19.864;2023-02-28T01:15:54;17.47;;;11.77;;
11141;SDS011;5625;50.122;19.864;2023-02-28T01:18:23;17.53;;;12.17;;
11141;SDS011;5625;50.122;19.864;2023-02-28T01:20:52;15.77;;;11.33;;
11141;SDS011;5625;50.122;19.864;2023-02-28T01:23:20;17.93;;;12.77;;
11141;SDS011;5625;50.122;19.864;2023-02-28T01:25:50;19.13;;;12.37;;
11141;SDS011;5625;50.122;19.864;2023-02-28T01:28:18;16.03;;;12.10;;
11141;SDS011;5625;50.122;19.864;2023-02-28T01:30:49;16.53;;;11.13;;
11141;SDS011;5625;50.122;19.864;2023-02-28T01:33:17;17.37;;;11.63;;
11141;SDS011;5625;50.122;19.864;2023-02-28T01:35:45;20.73;;;11.90;;
11141;SDS011;5625;50.122;19.864;2023-02-28T01:38:14;18.60;;;12.40;;
11141;SDS011;5625;50.122;19.864;2023-02-28T01:40:48;19.83;;;12.80;;
11141;SDS011;5625;50.122;19.864;2023-02-28T01:43:19;16.90;;;11.47;;
11141;SDS011;5625;50.122;19.864;2023-02-28T01:45:51;17.17;;;11.67;;
11141;SDS011;5625;50.122;19.864;2023-02-28T01:48:24;18.10;;;11.67;;
11141;SDS011;5625;50.122;19.864;2023-02-28T01:50:54;18.57;;;11.47;;
11141;SDS011;5625;50.122;19.864;2023-02-28T01:53:26;17.20;;;12.97;;
11141;SDS011;5625;50.122;19.864;2023-02-28T01:55:59;17.93;;;12.03;;
11141;SDS011;5625;50.122;19.864;2023-02-28T01:58:28;17.27;;;11.53;;
11141;SDS011;5625;50.122;19.864;2023-02-28T02:00:58;16.27;;;12.37;;
11141;SDS011;5625;50.122;19.864;2023-02-28T02:03:26;19.67;;;13.00;;
11141;SDS011;5625;50.122;19.864;2023-02-28T02:05:54;19.57;;;13.27;;
11141;SDS011;5625;50.122;19.864;2023-02-28T02:08:23;19.70;;;13.67;;
11141;SDS011;5625;50.122;19.864;2023-02-28T02:10:53;19.70;;;13.83;;
11141;SDS011;5625;50.122;19.864;2023-02-28T02:13:47;20.27;;;12.77;;
11141;SDS011;5625;50.122;19.864;2023-02-28T02:16:27;19.87;;;12.90;;
11141;SDS011;5625;50.122;19.864;2023-02-28T02:19:06;16.87;;;12.47;;
11141;SDS011;5625;50.122;19.864;2023-02-28T02:24:58;19.90;;;13.23;;
11141;SDS011;5625;50.122;19.864;2023-02-28T02:27:43;18.77;;;12.83;;
11141;SDS011;5625;50.122;19.864;2023-02-28T02:30:42;19.63;;;12.93;;
11141;SDS011;5625;50.122;19.864;2023-02-28T02:36:21;19.77;;;12.50;;
11141;SDS011;5625;50.122;19.864;2023-02-28T02:38:56;20.10;;;13.13;;
11141;SDS011;5625;50.122;19.864;2023-02-28T02:41:33;19.07;;;12.93;;
11141;SDS011;5625;50.122;19.864;2023-02-28T02:44:06;20.13;;;14.13;;
11141;SDS011;5625;50.122;19.864;2023-02-28T02:46:41;16.97;;;12.03;;
11141;SDS011;5625;50.122;19.864;2023-02-28T02:49:13;16.90;;;12.23;;
11141;SDS011;5625;50.122;19.864;2023-02-28T02:51:44;17.50;;;13.17;;
11141;SDS011;5625;50.122;19.864;2023-02-28T02:54:15;21.13;;;13.37;;
11141;SDS011;5625;50.122;19.864;2023-02-28T02:56:47;17.43;;;13.13;;
11141;SDS011;5625;50.122;19.864;2023-02-28T02:59:18;17.23;;;12.00;;
11141;SDS011;5625;50.122;19.864;2023-02-28T03:01:50;20.07;;;13.17;;
11141;SDS011;5625;50.122;19.864;2023-02-28T03:04:23;18.37;;;12.90;;
11141;SDS011;5625;50.122;19.864;2023-02-28T03:06:56;19.00;;;12.20;;
11141;SDS011;5625;50.122;19.864;2023-02-28T03:09:24;16.83;;;12.20;;
11141;SDS011;5625;50.122;19.864;2023-02-28T03:11:54;18.83;;;12.80;;
11141;SDS011;5625;50.122;19.864;2023-02-28T03:14:28;19.00;;;12.17;;
11141;SDS011;5625;50.122;19.864;2023-02-28T03:20:12;16.57;;;12.03;;
11141;SDS011;5625;50.122;19.864;2023-02-28T03:22:48;18.47;;;12.13;;
11141;SDS011;5625;50.122;19.864;2023-02-28T03:25:27;16.17;;;12.17;;
11141;SDS011;5625;50.122;19.864;2023-02-28T03:28:01;20.37;;;13.57;;
11141;SDS011;5625;50.122;19.864;2023-02-28T03:30:36;18.13;;;12.57;;
11141;SDS011;5625;50.122;19.864;2023-02-28T03:33:10;20.30;;;13.43;;
11141;SDS011;5625;50.122;19.864;2023-02-28T03:35:42;20.13;;;13.03;;
11141;SDS011;5625;50.122;19.864;2023-02-28T03:38:15;18.30;;;12.20;;
11141;SDS011;5625;50.122;19.864;2023-02-28T03:40:48;20.40;;;14.23;;
11141;SDS011;5625;50.122;19.864;2023-02-28T03:43:19;18.80;;;13.07;;
11141;SDS011;5625;50.122;19.864;2023-02-28T03:45:53;18.10;;;12.90;;
11141;SDS011;5625;50.122;19.864;2023-02-28T03:48:23;17.03;;;12.60;;
11141;SDS011;5625;50.122;19.864;2023-02-28T03:50:58;18.93;;;13.33;;
11141;SDS011;5625;50.122;19.864;2023-02-28T03:53:29;23.03;;;14.57;;
11141;SDS011;5625;50.122;19.864;2023-02-28T03:56:01;20.73;;;15.30;;
11141;SDS011;5625;50.122;19.864;2023-02-28T03:58:38;19.60;;;14.40;;
11141;SDS011;5625;50.122;19.864;2023-02-28T04:01:10;22.67;;;15.17;;
11141;SDS011;5625;50.122;19.864;2023-02-28T04:03:42;20.67;;;14.77;;
11141;SDS011;5625;50.122;19.864;2023-02-28T04:06:13;21.73;;;14.13;;
11141;SDS011;5625;50.122;19.864;2023-02-28T04:08:45;21.57;;;13.93;;
11141;SDS011;5625;50.122;19.864;2023-02-28T04:11:17;17.93;;;14.30;;
11141;SDS011;5625;50.122;19.864;2023-02-28T04:13:48;19.60;;;14.60;;
11141;SDS011;5625;50.122;19.864;2023-02-28T04:16:16;20.97;;;14.63;;
11141;SDS011;5625;50.122;19.864;2023-02-28T04:19:00;19.03;;;14.27;;
11141;SDS011;5625;50.122;19.864;2023-02-28T04:21:29;19.10;;;15.00;;
11141;SDS011;5625;50.122;19.864;2023-02-28T04:24:00;21.97;;;14.53;;
11141;SDS011;5625;50.122;19.864;2023-02-28T04:26:30;20.27;;;14.17;;
11141;SDS011;5625;50.122;19.864;2023-02-28T04:28:59;19.10;;;14.73;;
11141;SDS011;5625;50.122;19.864;2023-02-28T04:31:28;20.10;;;15.70;;
11141;SDS011;5625;50.122;19.864;2023-02-28T04:33:56;21.03;;;15.27;;
11141;SDS011;5625;50.122;19.864;2023-02-28T04:36:25;22.03;;;15.67;;
11141;SDS011;5625;50.122;19.864;2023-02-28T04:38:53;24.93;;;16.37;;
11141;SDS011;5625;50.122;19.864;2023-02-28T04:41:23;21.60;;;16.87;;
11141;SDS011;5625;50.122;19.864;2023-02-28T04:43:57;22.87;;;15.50;;
11141;SDS011;5625;50.122;19.864;2023-02-28T04:46:25;21.47;;;15.13;;
11141;SDS011;5625;50.122;19.864;2023-02-28T04:48:53;20.90;;;14.67;;
11141;SDS011;5625;50.122;19.864;2023-02-28T04:51:21;22.50;;;15.50;;
11141;SDS011;5625;50.122;19.864;2023-02-28T04:53:50;19.73;;;14.53;;
11141;SDS011;5625;50.122;19.864;2023-02-28T04:56:18;22.30;;;14.90;;
11141;SDS011;5625;50.122;19.864;2023-02-28T04:58:48;24.50;;;16.77;;
11141;SDS011;5625;50.122;19.864;2023-02-28T05:01:20;27.00;;;17.83;;
11141;SDS011;5625;50.122;19.864;2023-02-28T05:03:50;27.33;;;18.47;;
11141;SDS011;5625;50.122;19.864;2023-02-28T05:06:20;28.77;;;20.07;;
11141;SDS011;5625;50.122;19.864;2023-02-28T05:08:50;25.30;;;18.00;;
11141;SDS011;5625;50.122;19.864;2023-02-28T05:11:19;23.57;;;17.77;;
11141;SDS011;5625;50.122;19.864;2023-02-28T05:13:50;26.23;;;18.57;;
11141;SDS011;5625;50.122;19.864;2023-02-28T05:16:18;27.40;;;19.40;;
11141;SDS011;5625;50.122;19.864;2023-02-28T05:18:47;29.43;;;21.33;;
11141;SDS011;5625;50.122;19.864;2023-02-28T05:21:21;28.20;;;18.47;;
11141;SDS011;5625;50.122;19.864;2023-02-28T05:23:55;25.30;;;17.77;;
11141;SDS011;5625;50.122;19.864;2023-02-28T05:26:25;21.77;;;15.17;;
11141;SDS011;5625;50.122;19.864;2023-02-28T05:28:55;20.47;;;15.17;;
11141;SDS011;5625;50.122;19.864;2023-02-28T05:31:23;23.13;;;16.27;;
11141;SDS011;5625;50.122;19.864;2023-02-28T05:33:52;19.67;;;14.40;;
11141;SDS011;5625;50.122;19.864;2023-02-28T05:36:20;21.70;;;15.53;;
11141;SDS011;5625;50.122;19.864;2023-02-28T05:38:49;20.97;;;14.90;;
11141;SDS011;5625;50.122;19.864;2023-02-28T05:41:19;19.27;;;14.43;;
11141;SDS011;5625;50.122;19.864;2023-02-28T05:43:47;20.67;;;15.27;;
11141;SDS011;5625;50.122;19.864;2023-02-28T05:46:17;21.63;;;15.43;;
11141;SDS011;5625;50.122;19.864;2023-02-28T05:48:46;19.50;;;15.33;;
11141;SDS011;5625;50.122;19.864;2023-02-28T05:51:15;22.27;;;16.30;;
11141;SDS011;5625;50.122;19.864;2023-02-28T05:53:44;25.10;;;18.10;;
11141;SDS011;5625;50.122;19.864;2023-02-28T05:56:12;28.93;;;20.13;;
11141;SDS011;5625;50.122;19.864;2023-02-28T05:58:40;28.43;;;20.47;;
11141;SDS011;5625;50.122;19.864;2023-02-28T06:01:23;30.00;;;20.53;;
11141;SDS011;5625;50.122;19.864;2023-02-28T06:03:58;29.13;;;20.37;;
11141;SDS011;5625;50.122;19.864;2023-02-28T06:06:27;27.73;;;19.73;;
11141;SDS011;5625;50.122;19.864;2023-02-28T06:08:55;29.57;;;21.73;;
11141;SDS011;5625;50.122;19.864;2023-02-28T06:11:24;30.13;;;20.33;;
11141;SDS011;5625;50.122;19.864;2023-02-28T06:13:55;36.17;;;23.63;;
11141;SDS011;5625;50.122;19.864;2023-02-28T06:16:27;32.53;;;23.50;;
11141;SDS011;5625;50.122;19.864;2023-02-28T06:18:56;26.13;;;20.30;;
11141;SDS011;5625;50.122;19.864;2023-02-28T06:21:25;29.50;;;19.57;;
11141;SDS011;5625;50.122;19.864;2023-02-28T06:23:55;28.63;;;19.33;;
11141;SDS011;5625;50.122;19.864;2023-02-28T06:26:24;29.03;;;19.93;;
11141;SDS011;5625;50.122;19.864;2023-02-28T06:28:53;27.57;;;18.03;;
11141;SDS011;5625;50.122;19.864;2023-02-28T06:31:21;25.43;;;17.00;;
11141;SDS011;5625;50.122;19.864;2023-02-28T06:33:54;23.60;;;17.10;;
11141;SDS011;5625;50.122;19.864;2023-02-28T06:36:23;26.57;;;17.10;;
11141;SDS011;5625;50.122;19.864;2023-02-28T06:38:51;23.77;;;17.63;;
11141;SDS011;5625;50.122;19.864;2023-02-28T06:41:22;27.90;;;18.17;;
11141;SDS011;5625;50.122;19.864;2023-02-28T06:43:51;25.73;;;17.13;;
11141;SDS011;5625;50.122;19.864;2023-02-28T06:46:19;25.63;;;17.63;;
11141;SDS011;5625;50.122;19.864;2023-02-28T06:48:48;29.50;;;18.47;;
11141;SDS011;5625;50.122;19.864;2023-02-28T06:51:18;31.30;;;18.33;;
11141;SDS011;5625;50.122;19.864;2023-02-28T06:53:48;28.00;;;19.07;;
11141;SDS011;5625;50.122;19.864;2023-02-28T06:56:17;24.60;;;17.23;;
11141;SDS011;5625;50.122;19.864;2023-02-28T06:58:46;25.50;;;17.50;;
11141;SDS011;5625;50.122;19.864;2023-02-28T07:01:16;28.27;;;17.60;;
11141;SDS011;5625;50.122;19.864;2023-02-28T07:03:45;26.30;;;16.57;;
11141;SDS011;5625;50.122;19.864;2023-02-28T07:06:19;27.00;;;17.77;;
11141;SDS011;5625;50.122;19.864;2023-02-28T07:08:49;23.57;;;17.37;;
11141;SDS011;5625;50.122;19.864;2023-02-28T07:11:18;25.50;;;17.93;;
11141;SDS011;5625;50.122;19.864;2023-02-28T07:13:47;25.87;;;17.67;;
11141;SDS011;5625;50.122;19.864;2023-02-28T07:16:15;30.97;;;18.37;;
11141;SDS011;5625;50.122;19.864;2023-02-28T07:18:43;25.63;;;16.40;;
11141;SDS011;5625;50.122;19.864;2023-02-28T07:21:11;26.77;;;17.03;;
11141;SDS011;5625;50.122;19.864;2023-02-28T07:23:41;27.60;;;18.73;;
11141;SDS011;5625;50.122;19.864;2023-02-28T07:26:10;30.30;;;20.00;;
11141;SDS011;5625;50.122;19.864;2023-02-28T07:28:41;29.90;;;19.23;;
11141;SDS011;5625;50.122;19.864;2023-02-28T07:31:12;28.57;;;19.40;;
11141;SDS011;5625;50.122;19.864;2023-02-28T07:33:41;29.00;;;19.97;;
11141;SDS011;5625;50.122;19.864;2023-02-28T07:36:10;27.50;;;18.60;;
11141;SDS011;5625;50.122;19.864;2023-02-28T07:38:43;26.70;;;19.63;;
11141;SDS011;5625;50.122;19.864;2023-02-28T07:41:14;26.37;;;19.03;;
11141;SDS011;5625;50.122;19.864;2023-02-28T07:43:42;35.13;;;20.00;;
11141;SDS011;5625;50.122;19.864;2023-02-28T07:46:13;29.13;;;19.43;;
11141;SDS011;5625;50.122;19.864;2023-02-28T07:48:43;28.17;;;19.47;;
11141;SDS011;5625;50.122;19.864;2023-02-28T07:51:11;29.60;;;19.63;;
11141;SDS011;5625;50.122;19.864;2023-02-28T07:53:39;28.77;;;19.17;;
11141;SDS011;5625;50.122;19.864;2023-02-28T07:56:09;27.10;;;18.67;;
11141;SDS011;5625;50.122;19.864;2023-02-28T07:58:37;26.63;;;17.83;;
11141;SDS011;5625;50.122;19.864;2023-02-28T08:01:06;27.93;;;18.20;;
11141;SDS011;5625;50.122;19.864;2023-02-28T08:03:34;24.30;;;17.50;;
11141;SDS011;5625;50.122;19.864;2023-02-28T08:06:07;24.00;;;16.63;;
11141;SDS011;5625;50.122;19.864;2023-02-28T08:08:42;23.03;;;16.40;;
11141;SDS011;5625;50.122;19.864;2023-02-28T08:11:12;24.17;;;15.97;;
11141;SDS011;5625;50.122;19.864;2023-02-28T08:13:40;22.40;;;16.03;;
11141;SDS011;5625;50.122;19.864;2023-02-28T08:16:10;21.30;;;14.63;;
11141;SDS011;5625;50.122;19.864;2023-02-28T08:18:40;21.33;;;13.13;;
11141;SDS011;5625;50.122;19.864;2023-02-28T08:21:09;21.23;;;13.27;;
11141;SDS011;5625;50.122;19.864;2023-02-28T08:23:38;21.70;;;13.97;;
11141;SDS011;5625;50.122;19.864;2023-02-28T08:26:06;22.17;;;13.50;;
11141;SDS011;5625;50.122;19.864;2023-02-28T08:28:35;24.57;;;13.20;;
11141;SDS011;5625;50.122;19.864;2023-02-28T08:31:06;20.17;;;12.93;;
11141;SDS011;5625;50.122;19.864;2023-02-28T08:33:36;18.13;;;12.67;;
11141;SDS011;5625;50.122;19.864;2023-02-28T08:36:05;21.37;;;12.97;;
11141;SDS011;5625;50.122;19.864;2023-02-28T08:38:35;17.43;;;11.70;;
11141;SDS011;5625;50.122;19.864;2023-02-28T08:41:05;17.47;;;10.43;;
11141;SDS011;5625;50.122;19.864;2023-02-28T08:43:36;15.80;;;9.40;;
11141;SDS011;5625;50.122;19.864;2023-02-28T08:46:05;13.87;;;8.87;;
11141;SDS011;5625;50.122;19.864;2023-02-28T08:48:34;12.50;;;7.47;;
11141;SDS011;5625;50.122;19.864;2023-02-28T08:51:04;14.40;;;7.57;;
11141;SDS011;5625;50.122;19.864;2023-02-28T08:53:35;12.10;;;8.10;;
11141;SDS011;5625;50.122;19.864;2023-02-28T08:56:04;10.73;;;7.53;;
11141;SDS011;5625;50.122;19.864;2023-02-28T08:58:34;12.50;;;6.73;;
11141;SDS011;5625;50.122;19.864;2023-02-28T09:01:07;8.10;;;6.30;;
11141;SDS011;5625;50.122;19.864;2023-02-28T09:03:37;6.90;;;5.93;;
11141;SDS011;5625;50.122;19.864;2023-02-28T09:06:05;6.53;;;5.70;;
11141;SDS011;5625;50.122;19.864;2023-02-28T09:08:33;8.70;;;5.80;;
11141;SDS011;5625;50.122;19.864;2023-02-28T09:11:02;11.40;;;6.30;;
11141;SDS011;5625;50.122;19.864;2023-02-28T09:13:31;14.03;;;6.27;;
11141;SDS011;5625;50.122;19.864;2023-02-28T09:16:02;10.53;;;6.37;;
11141;SDS011;5625;50.122;19.864;2023-02-28T09:18:33;9.67;;;5.93;;
11141;SDS011;5625;50.122;19.864;2023-02-28T09:21:02;20.00;;;6.87;;
11141;SDS011;5625;50.122;19.864;2023-02-28T09:23:34;12.67;;;7.37;;
11141;SDS011;5625;50.122;19.864;2023-02-28T09:26:04;12.87;;;6.80;;
11141;SDS011;5625;50.122;19.864;2023-02-28T09:28:33;10.93;;;7.53;;
11141;SDS011;5625;50.122;19.864;2023-02-28T09:31:02;14.53;;;8.50;;
11141;SDS011;5625;50.122;19.864;2023-02-28T09:33:31;10.07;;;6.80;;
11141;SDS011;5625;50.122;19.864;2023-02-28T09:36:00;9.87;;;6.73;;
11141;SDS011;5625;50.122;19.864;2023-02-28T09:38:30;7.00;;;6.27;;
11141;SDS011;5625;50.122;19.864;2023-02-28T09:40:58;7.20;;;5.90;;
11141;SDS011;5625;50.122;19.864;2023-02-28T09:43:33;9.87;;;6.23;;
11141;SDS011;5625;50.122;19.864;2023-02-28T09:46:08;9.37;;;6.63;;
11141;SDS011;5625;50.122;19.864;2023-02-28T09:48:45;7.50;;;6.10;;
11141;SDS011;5625;50.122;19.864;2023-02-28T09:51:18;8.37;;;6.90;;
11141;SDS011;5625;50.122;19.864;2023-02-28T09:54:00;7.77;;;6.43;;
11141;SDS011;5625;50.122;19.864;2023-02-28T09:56:30;7.20;;;6.40;;
11141;SDS011;5625;50.122;19.864;2023-02-28T09:59:04;9.03;;;7.13;;
11141;SDS011;5625;50.122;19.864;2023-02-28T10:01:43;11.10;;;6.73;;
11141;SDS011;5625;50.122;19.864;2023-02-28T10:04:23;8.17;;;6.83;;
11141;SDS011;5625;50.122;19.864;2023-02-28T10:07:05;8.57;;;6.47;;
11141;SDS011;5625;50.122;19.864;2023-02-28T10:09:44;8.13;;;6.90;;
11141;SDS011;5625;50.122;19.864;2023-02-28T10:12:14;9.20;;;7.27;;
11141;SDS011;5625;50.122;19.864;2023-02-28T10:14:44;7.90;;;6.67;;
11141;SDS011;5625;50.122;19.864;2023-02-28T10:17:16;9.03;;;7.30;;
11141;SDS011;5625;50.122;19.864;2023-02-28T10:19:50;8.10;;;6.60;;
11141;SDS011;5625;50.122;19.864;2023-02-28T10:22:27;8.67;;;7.03;;
11141;SDS011;5625;50.122;19.864;2023-02-28T10:25:01;7.70;;;6.83;;
11141;SDS011;5625;50.122;19.864;2023-02-28T10:27:47;12.00;;;7.83;;
11141;SDS011;5625;50.122;19.864;2023-02-28T10:30:16;10.53;;;7.80;;
11141;SDS011;5625;50.122;19.864;2023-02-28T10:32:47;11.30;;;7.37;;
11141;SDS011;5625;50.122;19.864;2023-02-28T10:35:20;10.33;;;7.50;;
11141;SDS011;5625;50.122;19.864;2023-02-28T10:37:50;10.20;;;7.70;;
11141;SDS011;5625;50.122;19.864;2023-02-28T10:40:29;10.80;;;7.40;;
11141;SDS011;5625;50.122;19.864;2023-02-28T10:43:00;8.47;;;7.63;;
11141;SDS011;5625;50.122;19.864;2023-02-28T10:45:30;13.83;;;8.87;;
11141;SDS011;5625;50.122;19.864;2023-02-28T10:48:02;9.93;;;8.50;;
11141;SDS011;5625;50.122;19.864;2023-02-28T10:50:34;11.03;;;8.43;;
11141;SDS011;5625;50.122;19.864;2023-02-28T10:53:19;9.83;;;8.70;;
11141;SDS011;5625;50.122;19.864;2023-02-28T10:55:56;9.93;;;7.63;;
11141;SDS011;5625;50.122;19.864;2023-02-28T10:58:26;9.00;;;7.17;;
11141;SDS011;5625;50.122;19.864;2023-02-28T11:00:57;9.10;;;8.20;;
11141;SDS011;5625;50.122;19.864;2023-02-28T11:03:32;9.70;;;7.67;;
11141;SDS011;5625;50.122;19.864;2023-02-28T11:06:05;9.37;;;7.33;;
11141;SDS011;5625;50.122;19.864;2023-02-28T11:08:43;8.87;;;7.97;;
11141;SDS011;5625;50.122;19.864;2023-02-28T11:11:17;13.67;;;8.50;;
11141;SDS011;5625;50.122;19.864;2023-02-28T11:13:47;8.47;;;7.57;;
11141;SDS011;5625;50.122;19.864;2023-02-28T11:16:18;10.13;;;8.77;;
11141;SDS011;5625;50.122;19.864;2023-02-28T11:18:49;8.97;;;8.07;;
11141;SDS011;5625;50.122;19.864;2023-02-28T11:21:21;12.23;;;9.67;;
11141;SDS011;5625;50.122;19.864;2023-02-28T11:23:53;12.50;;;9.57;;
11141;SDS011;5625;50.122;19.864;2023-02-28T11:26:35;9.70;;;8.70;;
11141;SDS011;5625;50.122;19.864;2023-02-28T11:29:09;9.17;;;8.13;;
11141;SDS011;5625;50.122;19.864;2023-02-28T11:32:03;9.13;;;7.73;;
11141;SDS011;5625;50.122;19.864;2023-02-28T11:34:39;9.97;;;8.20;;
11141;SDS011;5625;50.122;19.864;2023-02-28T11:37:11;10.33;;;8.07;;
11141;SDS011;5625;50.122;19.864;2023-02-28T11:39:40;13.30;;;7.93;;
11141;SDS011;5625;50.122;19.864;2023-02-28T11:45:12;10.43;;;9.33;;
11141;SDS011;5625;50.122;19.864;2023-02-28T11:47:52;10.73;;;8.97;;
11141;SDS011;5625;50.122;19.864;2023-02-28T11:53:24;9.03;;;8.07;;
11141;SDS011;5625;50.122;19.864;2023-02-28T11:56:08;10.40;;;7.67;;
11141;SDS011;5625;50.122;19.864;2023-02-28T11:58:42;11.97;;;7.93;;
11141;SDS011;5625;50.122;19.864;2023-02-28T12:01:21;11.13;;;8.30;;
11141;SDS011;5625;50.122;19.864;2023-02-28T12:04:08;9.63;;;8.13;;
11141;SDS011;5625;50.122;19.864;2023-02-28T12:06:48;8.60;;;7.47;;
11141;SDS011;5625;50.122;19.864;2023-02-28T12:09:25;11.57;;;8.07;;
11141;SDS011;5625;50.122;19.864;2023-02-28T12:12:04;9.30;;;8.30;;
11141;SDS011;5625;50.122;19.864;2023-02-28T12:14:46;10.73;;;8.03;;
11141;SDS011;5625;50.122;19.864;2023-02-28T12:17:32;10.40;;;8.07;;
11141;SDS011;5625;50.122;19.864;2023-02-28T12:20:17;9.23;;;8.33;;
11141;SDS011;5625;50.122;19.864;2023-02-28T12:22:57;11.23;;;9.00;;
11141;SDS011;5625;50.122;19.864;2023-02-28T12:25:38;10.60;;;8.03;;
11141;SDS011;5625;50.122;19.864;2023-02-28T12:28:17;9.57;;;8.60;;
11141;SDS011;5625;50.122;19.864;2023-02-28T12:30:51;9.43;;;7.23;;
11141;SDS011;5625;50.122;19.864;2023-02-28T12:33:26;9.47;;;7.73;;
11141;SDS011;5625;50.122;19.864;2023-02-28T12:36:00;10.77;;;8.10;;
11141;SDS011;5625;50.122;19.864;2023-02-28T12:38:37;9.20;;;8.27;;
11141;SDS011;5625;50.122;19.864;2023-02-28T12:41:10;11.37;;;8.30;;
11141;SDS011;5625;50.122;19.864;2023-02-28T12:43:43;10.03;;;8.17;;
11141;SDS011;5625;50.122;19.864;2023-02-28T12:46:15;9.50;;;8.50;;
11141;SDS011;5625;50.122;19.864;2023-02-28T12:48:48;12.07;;;8.33;;
11141;SDS011;5625;50.122;19.864;2023-02-28T12:51:21;12.27;;;7.57;;
11141;SDS011;5625;50.122;19.864;2023-02-28T12:53:54;11.33;;;8.60;;
11141;SDS011;5625;50.122;19.864;2023-02-28T12:56:32;13.03;;;8.77;;
11141;SDS011;5625;50.122;19.864;2023-02-28T12:59:10;11.23;;;8.90;;
11141;SDS011;5625;50.122;19.864;2023-02-28T13:01:51;9.70;;;8.37;;
11141;SDS011;5625;50.122;19.864;2023-02-28T13:04:32;11.17;;;8.10;;
11141;SDS011;5625;50.122;19.864;2023-02-28T13:07:19;13.37;;;7.93;;
11141;SDS011;5625;50.122;19.864;2023-02-28T13:10:18;11.43;;;8.80;;
11141;SDS011;5625;50.122;19.864;2023-02-28T13:12:49;13.00;;;8.43;;
11141;SDS011;5625;50.122;19.864;2023-02-28T13:15:20;14.17;;;8.83;;
11141;SDS011;5625;50.122;19.864;2023-02-28T13:17:52;13.80;;;8.63;;
11141;SDS011;5625;50.122;19.864;2023-02-28T13:20:23;11.37;;;9.53;;
11141;SDS011;5625;50.122;19.864;2023-02-28T13:22:54;14.87;;;10.33;;
11141;SDS011;5625;50.122;19.864;2023-02-28T13:31:28;10.00;;;8.60;;
11141;SDS011;5625;50.122;19.864;2023-02-28T13:34:04;9.73;;;8.73;;
11141;SDS011;5625;50.122;19.864;2023-02-28T13:36:39;9.67;;;8.67;;
11141;SDS011;5625;50.122;19.864;2023-02-28T13:42:31;10.40;;;9.03;;
11141;SDS011;5625;50.122;19.864;2023-02-28T13:45:23;11.07;;;9.00;;
11141;SDS011;5625;50.122;19.864;2023-02-28T13:47:58;9.03;;;8.13;;
11141;SDS011;5625;50.122;19.864;2023-02-28T13:50:29;9.70;;;8.70;;
11141;SDS011;5625;50.122;19.864;2023-02-28T13:53:13;10.47;;;8.40;;
11141;SDS011;5625;50.122;19.864;2023-02-28T13:56:03;10.93;;;8.33;;
11141;SDS011;5625;50.122;19.864;2023-02-28T13:58:46;8.93;;;7.97;;
11141;SDS011;5625;50.122;19.864;2023-02-28T14:01:24;10.50;;;8.67;;
11141;SDS011;5625;50.122;19.864;2023-02-28T14:04:22;10.93;;;8.97;;
11141;SDS011;5625;50.122;19.864;2023-02-28T14:07:16;11.53;;;8.80;;
11141;SDS011;5625;50.122;19.864;2023-02-28T14:09:48;11.57;;;9.23;;
11141;SDS011;5625;50.122;19.864;2023-02-28T14:18:29;11.40;;;8.37;;
11141;SDS011;5625;50.122;19.864;2023-02-28T14:21:07;12.77;;;8.80;;
11141;SDS011;5625;50.122;19.864;2023-02-28T14:26:55;13.53;;;9.30;;
11141;SDS011;5625;50.122;19.864;2023-02-28T14:29:53;9.90;;;8.73;;
11141;SDS011;5625;50.122;19.864;2023-02-28T14:32:49;9.67;;;8.67;;
11141;SDS011;5625;50.122;19.864;2023-02-28T14:38:19;10.37;;;8.83;;
11141;SDS011;5625;50.122;19.864;2023-02-28T14:40:54;10.70;;;8.50;;
11141;SDS011;5625;50.122;19.864;2023-02-28T14:43:25;14.10;;;8.70;;
11141;SDS011;5625;50.122;19.864;2023-02-28T14:45:55;14.07;;;8.90;;
11141;SDS011;5625;50.122;19.864;2023-02-28T14:48:28;9.07;;;8.10;;
11141;SDS011;5625;50.122;19.864;2023-02-28T14:50:57;12.20;;;8.80;;
11141;SDS011;5625;50.122;19.864;2023-02-28T14:53:27;9.50;;;8.23;;
11141;SDS011;5625;50.122;19.864;2023-02-28T14:55:57;10.93;;;9.17;;
11141;SDS011;5625;50.122;19.864;2023-02-28T14:58:27;10.30;;;8.30;;
11141;SDS011;5625;50.122;19.864;2023-02-28T15:00:58;10.93;;;8.60;;
11141;SDS011;5625;50.122;19.864;2023-02-28T15:03:31;10.33;;;7.77;;
11141;SDS011;5625;50.122;19.864;2023-02-28T15:06:01;11.13;;;8.50;;
11141;SDS011;5625;50.122;19.864;2023-02-28T15:08:31;11.67;;;8.63;;
11141;SDS011;5625;50.122;19.864;2023-02-28T15:11:03;14.20;;;8.67;;
11141;SDS011;5625;50.122;19.864;2023-02-28T15:13:36;12.17;;;8.80;;
11141;SDS011;5625;50.122;19.864;2023-02-28T15:16:08;10.27;;;9.13;;
11141;SDS011;5625;50.122;19.864;2023-02-28T15:18:43;8.83;;;7.60;;
11141;SDS011;5625;50.122;19.864;2023-02-28T15:21:15;9.90;;;8.20;;
11141;SDS011;5625;50.122;19.864;2023-02-28T15:23:45;9.40;;;8.43;;
11141;SDS011;5625;50.122;19.864;2023-02-28T15:26:16;8.90;;;8.03;;
11141;SDS011;5625;50.122;19.864;2023-02-28T15:28:57;10.63;;;8.53;;
11141;SDS011;5625;50.122;19.864;2023-02-28T15:31:27;12.60;;;8.40;;
11141;SDS011;5625;50.122;19.864;2023-02-28T15:34:15;11.77;;;8.60;;
11141;SDS011;5625;50.122;19.864;2023-02-28T15:36:50;12.70;;;9.20;;